createdAt,value
2023-08-15T00:00:33.506Z,95792.22
2023-08-15T00:03:19.435Z,95789.78
2023-08-15T00:06:05.304Z,95795.31
2023-08-15T00:08:55.706Z,95780.63
2023-08-15T00:11:41.967Z,95794.81
2023-08-15T00:14:27.867Z,95771.56
2023-08-15T00:17:13.968Z,95782.97
2023-08-15T00:19:59.732Z,95775.84
2023-08-15T00:22:45.598Z,95774.63
2023-08-15T00:25:31.937Z,95781.72
2023-08-15T00:28:21.966Z,95776.97
2023-08-15T00:31:08.124Z,95779.72
2023-08-15T00:33:54.375Z,95774.63
2023-08-15T00:36:40.595Z,95780.13
2023-08-15T00:39:28.818Z,95783.31
2023-08-15T00:42:15.184Z,95777.75
2023-08-15T00:45:01.268Z,95776.63
2023-08-15T00:47:48.621Z,95768.78
2023-08-15T00:50:35.188Z,95776.69
2023-08-15T00:53:21.200Z,95774.31
2023-08-15T00:56:08.009Z,95760.94
2023-08-15T00:58:53.954Z,95768.03
2023-08-15T01:01:40.461Z,95767.22
2023-08-15T01:04:27.782Z,95767.22
2023-08-15T01:07:14.292Z,95754.94
2023-08-15T01:10:01.930Z,95758.03
2023-08-15T01:13:01.634Z,95749.69
2023-08-15T01:15:51.300Z,95751.72
2023-08-15T01:18:46.721Z,95741.41
2023-08-15T01:21:36.266Z,95733.13
2023-08-15T01:24:22.955Z,95738.63
2023-08-15T01:27:09.166Z,95742.16
2023-08-15T01:29:56.736Z,95717.72
2023-08-15T01:32:42.617Z,95731.16
2023-08-15T01:35:34.918Z,95733.50
2023-08-15T01:38:31.469Z,95731.84
2023-08-15T01:41:20.865Z,95736.16
2023-08-15T01:44:08.901Z,95733.81
2023-08-15T01:46:54.973Z,95732.66
2023-08-15T01:49:42.119Z,95721.63
2023-08-15T01:52:28.472Z,95719.25
2023-08-15T01:55:14.434Z,95723.63
2023-08-15T01:58:00.224Z,95715.38
2023-08-15T02:00:46.607Z,95720.94
2023-08-15T02:03:32.310Z,95719.03
2023-08-15T02:06:18.255Z,95708.41
2023-08-15T02:09:05.188Z,95712.75
2023-08-15T02:11:56.224Z,95722.66
2023-08-15T02:14:43.308Z,95712.38
2023-08-15T02:17:29.264Z,95723.38
2023-08-15T02:20:16.802Z,95717.94
2023-08-15T02:23:02.987Z,95712.44
2023-08-15T02:25:50.073Z,95702.97
2023-08-15T02:28:37.994Z,95704.56
2023-08-15T02:31:27.588Z,95701.34
2023-08-15T02:34:13.490Z,95709.28
2023-08-15T02:37:00.393Z,95710.88
2023-08-15T02:39:46.418Z,95706.94
2023-08-15T02:42:32.588Z,95712.44
2023-08-15T02:45:18.354Z,95714.78
2023-08-15T02:48:04.710Z,95701.81
2023-08-15T02:50:50.546Z,95696.59
2023-08-15T02:53:37.492Z,95713.91
2023-08-15T02:56:23.567Z,95696.94
2023-08-15T02:59:09.737Z,95698.13
2023-08-15T03:01:56.885Z,95692.50
2023-08-15T03:04:43.023Z,95689.28
2023-08-15T03:07:30.169Z,95694.00
2023-08-15T03:10:16.266Z,95696.31
2023-08-15T03:13:02.116Z,95691.84
2023-08-15T03:15:57.299Z,95690.69
2023-08-15T03:18:45.068Z,95685.16
2023-08-15T03:21:31.312Z,95692.25
2023-08-15T03:24:17.034Z,95696.97
2023-08-15T03:27:04.526Z,95697.28
2023-08-15T03:29:50.615Z,95697.72
2023-08-15T03:32:36.704Z,95697.75
2023-08-15T03:35:23.127Z,95692.28
2023-08-15T03:38:10.223Z,95701.38
2023-08-15T03:41:06.466Z,95704.94
2023-08-15T03:43:52.458Z,95699.47
2023-08-15T03:46:38.605Z,95693.13
2023-08-15T03:49:24.650Z,95701.03
2023-08-15T03:52:12.101Z,95699.06
2023-08-15T03:54:58.302Z,95700.22
2023-08-15T03:57:45.597Z,95693.91
2023-08-15T04:00:31.856Z,95698.59
2023-08-15T04:03:17.847Z,95698.56
2023-08-15T04:06:04.745Z,95702.47
2023-08-15T04:08:50.739Z,95696.88
2023-08-15T04:11:36.690Z,95704.69
2023-08-15T04:14:22.539Z,95694.34
2023-08-15T04:17:08.629Z,95689.94
2023-08-15T04:19:54.504Z,95688.72
2023-08-15T04:22:40.894Z,95693.00
2023-08-15T04:25:27.490Z,95692.53
2023-08-15T04:28:15.534Z,95699.53
2023-08-15T04:31:02.041Z,95701.88
2023-08-15T04:33:48.080Z,95718.38
2023-08-15T04:36:34.085Z,95713.66
2023-08-15T04:39:20.308Z,95710.47
2023-08-15T04:42:06.487Z,95714.38
2023-08-15T04:47:39.194Z,95715.56
2023-08-15T04:50:26.170Z,95723.00
2023-08-15T04:53:12.085Z,95716.63
2023-08-15T04:55:59.560Z,95718.16
2023-08-15T04:58:45.489Z,95720.84
2023-08-15T05:01:32.504Z,95701.41
2023-08-15T05:04:18.617Z,95729.78
2023-08-15T05:07:04.847Z,95721.06
2023-08-15T05:09:50.794Z,95727.59
2023-08-15T05:12:37.852Z,95737.00
2023-08-15T05:15:23.893Z,95738.06
2023-08-15T05:18:18.870Z,95739.56
2023-08-15T05:21:05.753Z,95735.50
2023-08-15T05:23:55.776Z,95728.78
2023-08-15T05:26:42.128Z,95738.69
2023-08-15T05:29:28.650Z,95725.03
2023-08-15T05:32:14.791Z,95730.19
2023-08-15T05:35:01.570Z,95729.53
2023-08-15T05:37:48.306Z,95724.03
2023-08-15T05:40:37.787Z,95729.13
2023-08-15T05:43:25.282Z,95731.66
2023-08-15T05:46:11.125Z,95729.31
2023-08-15T05:48:56.889Z,95725.88
2023-08-15T05:51:43.950Z,95732.25
2023-08-15T05:54:30.207Z,95719.69
2023-08-15T05:57:16.213Z,95723.59
2023-08-15T06:00:03.887Z,95722.00
2023-08-15T06:02:59.908Z,95724.38
2023-08-15T06:05:47.051Z,95721.28
2023-08-15T06:08:32.710Z,95721.28
2023-08-15T06:11:19.520Z,95714.31
2023-08-15T06:14:05.660Z,95719.88
2023-08-15T06:16:51.997Z,95728.72
2023-08-15T06:19:38.124Z,95725.69
2023-08-15T06:22:24.479Z,95728.97
2023-08-15T06:25:18.691Z,95722.72
2023-08-15T06:28:06.263Z,95711.78
2023-08-15T06:30:52.764Z,95716.63
2023-08-15T06:33:39.219Z,95723.78
2023-08-15T06:36:25.156Z,95701.72
2023-08-15T06:39:12.823Z,95715.22
2023-08-15T06:41:59.178Z,95725.91
2023-08-15T06:44:46.315Z,95720.03
2023-08-15T06:47:32.756Z,95730.31
2023-08-15T06:50:19.285Z,95714.53
2023-08-15T06:53:05.626Z,95718.56
2023-08-15T06:55:51.855Z,95715.38
2023-08-15T06:58:38.103Z,95726.47
2023-08-15T07:01:35.711Z,95720.22
2023-08-15T07:04:21.912Z,95717.16
2023-08-15T07:07:13.063Z,95716.78
2023-08-15T07:09:59.030Z,95728.66
2023-08-15T07:12:45.843Z,95722.88
2023-08-15T07:15:33.877Z,95712.31
2023-08-15T07:18:20.164Z,95726.22
2023-08-15T07:21:06.000Z,95720.78
2023-08-15T07:23:52.013Z,95720.06
2023-08-15T07:26:39.712Z,95717.03
2023-08-15T07:29:27.216Z,95719.06
2023-08-15T07:32:13.786Z,95736.06
2023-08-15T07:35:00.188Z,95725.06
2023-08-15T07:37:46.249Z,95733.03
2023-08-15T07:40:32.240Z,95732.28
2023-08-15T07:43:18.590Z,95732.31
2023-08-15T07:46:04.768Z,95723.66
2023-08-15T07:48:51.966Z,95722.06
2023-08-15T07:51:38.133Z,95726.81
2023-08-15T07:54:24.172Z,95721.31
2023-08-15T07:57:10.764Z,95714.19
2023-08-15T07:59:56.993Z,95720.50
2023-08-15T08:02:43.211Z,95711.06
2023-08-15T08:05:31.994Z,95707.13
2023-08-15T08:08:22.677Z,95709.13
2023-08-15T08:11:09.248Z,95706.75
2023-08-15T08:13:55.071Z,95708.75
2023-08-15T08:16:41.205Z,95714.31
2023-08-15T08:19:27.581Z,95709.59
2023-08-15T08:22:14.884Z,95704.91
2023-08-15T08:25:11.851Z,95702.94
2023-08-15T08:27:57.879Z,95709.25
2023-08-15T08:30:45.372Z,95709.25
2023-08-15T08:33:31.540Z,95690.69
2023-08-15T08:36:17.706Z,95698.63
2023-08-15T08:39:04.914Z,95701.03
2023-08-15T08:41:52.411Z,95706.97
2023-08-15T08:44:38.474Z,95711.34
2023-08-15T08:47:27.918Z,95701.09
2023-08-15T08:50:14.319Z,95714.97
2023-08-15T08:53:00.428Z,95720.09
2023-08-15T08:55:48.752Z,95719.34
2023-08-15T08:58:36.822Z,95726.44
2023-08-15T09:01:23.436Z,95715.78
2023-08-15T09:04:09.621Z,95716.19
2023-08-15T09:06:55.855Z,95729.63
2023-08-15T09:09:43.102Z,95729.22
2023-08-15T09:12:39.758Z,95728.84
2023-08-15T09:15:25.915Z,95724.88
2023-08-15T09:18:13.064Z,95729.59
2023-08-15T09:21:00.073Z,95727.66
2023-08-15T09:23:46.127Z,95734.38
2023-08-15T09:26:36.489Z,95736.34
2023-08-15T09:29:23.342Z,95730.41
2023-08-15T09:32:10.896Z,95728.84
2023-08-15T09:34:56.692Z,95723.31
2023-08-15T09:37:48.256Z,95723.31
2023-08-15T09:40:34.236Z,95709.09
2023-08-15T09:43:21.032Z,95711.06
2023-08-15T09:46:07.264Z,95710.66
2023-08-15T09:48:53.798Z,95712.25
2023-08-15T09:51:39.670Z,95709.50
2023-08-15T09:54:26.128Z,95713.84
2023-08-15T09:57:12.129Z,95714.63
2023-08-15T09:59:58.448Z,95724.91
2023-08-15T10:02:49.583Z,95713.03
2023-08-15T10:05:37.827Z,95712.59
2023-08-15T10:08:24.946Z,95714.97
2023-08-15T10:11:12.537Z,95714.56
2023-08-15T10:13:59.038Z,95699.09
2023-08-15T10:16:45.294Z,95709.00
2023-08-15T10:19:33.993Z,95707.34
2023-08-15T10:22:21.019Z,95706.13
2023-08-15T10:25:28.973Z,95696.16
2023-08-15T10:28:15.091Z,95687.00
2023-08-15T10:31:01.388Z,95679.81
2023-08-15T10:33:47.532Z,95677.06
2023-08-15T10:36:33.922Z,95672.31
2023-08-15T10:39:19.809Z,95675.50
2023-08-15T10:42:05.579Z,95676.31
2023-08-15T10:45:01.625Z,95673.94
2023-08-15T10:47:47.412Z,95667.56
2023-08-15T10:50:34.158Z,95670.28
2023-08-15T10:53:19.979Z,95666.63
2023-08-15T10:56:06.114Z,95654.66
2023-08-15T10:58:52.384Z,95664.78
2023-08-15T11:01:38.968Z,95662.22
2023-08-15T11:04:25.978Z,95654.94
2023-08-15T11:07:11.866Z,95669.91
2023-08-15T11:09:57.837Z,95659.53
2023-08-15T11:12:50.857Z,95658.69
2023-08-15T11:15:41.223Z,95660.97
2023-08-15T11:18:27.367Z,95644.31
2023-08-15T11:21:14.603Z,95646.59
2023-08-15T11:24:01.664Z,95651.97
2023-08-15T11:26:49.196Z,95658.09
2023-08-15T11:29:35.272Z,95645.34
2023-08-15T11:32:24.663Z,95648.41
2023-08-15T11:35:11.570Z,95644.59
2023-08-15T11:37:57.578Z,95639.78
2023-08-15T11:40:44.972Z,95635.72
2023-08-15T11:43:31.344Z,95634.69
2023-08-15T11:46:17.505Z,95625.16
2023-08-15T11:49:03.962Z,95624.47
2023-08-15T11:51:50.478Z,95617.28
2023-08-15T11:54:36.735Z,95631.88
2023-08-15T11:57:38.508Z,95625.44
2023-08-15T12:00:24.686Z,95626.03
2023-08-15T12:03:11.049Z,95616.00
2023-08-15T12:05:58.706Z,95614.78
2023-08-15T12:08:46.562Z,95636.72
2023-08-15T12:11:35.685Z,95625.19
2023-08-15T12:14:22.802Z,95625.72
2023-08-15T12:17:09.819Z,95616.66
2023-08-15T12:19:55.897Z,95611.06
2023-08-15T12:22:46.043Z,95624.00
2023-08-15T12:25:31.943Z,95608.50
2023-08-15T12:28:19.800Z,95620.38
2023-08-15T12:31:06.033Z,95613.97
2023-08-15T12:33:52.293Z,95611.69
2023-08-15T12:36:38.324Z,95616.66
2023-08-15T12:39:25.268Z,95616.25
2023-08-15T12:42:13.354Z,95617.25
2023-08-15T12:44:59.383Z,95613.81
2023-08-15T12:47:45.426Z,95611.47
2023-08-15T12:50:31.437Z,95620.97
2023-08-15T12:53:17.340Z,95612.72
2023-08-15T12:56:03.784Z,95611.53
2023-08-15T12:58:49.588Z,95611.03
2023-08-15T13:01:37.131Z,95615.19
2023-08-15T13:04:27.122Z,95614.50
2023-08-15T13:07:13.192Z,95608.59
2023-08-15T13:09:59.995Z,95606.56
2023-08-15T13:12:45.953Z,95600.28
2023-08-15T13:15:32.230Z,95603.47
2023-08-15T13:18:18.099Z,95606.63
2023-08-15T13:21:04.423Z,95624.19
2023-08-15T13:23:50.588Z,95620.72
2023-08-15T13:26:36.525Z,95621.94
2023-08-15T13:29:22.811Z,95623.59
2023-08-15T13:32:09.390Z,95618.09
2023-08-15T13:34:56.267Z,95618.91
2023-08-15T13:37:43.183Z,95612.56
2023-08-15T13:40:30.008Z,95610.09
2023-08-15T13:43:16.148Z,95606.84
2023-08-15T13:46:09.144Z,95609.09
2023-08-15T13:48:55.544Z,95614.50
2023-08-15T13:51:43.196Z,95601.81
2023-08-15T13:54:30.298Z,95612.44
2023-08-15T13:57:16.333Z,95617.22
2023-08-15T14:00:03.218Z,95606.19
2023-08-15T14:02:50.738Z,95606.56
2023-08-15T14:05:37.244Z,95607.66
2023-08-15T14:08:23.902Z,95606.94
2023-08-15T14:11:09.879Z,95611.81
2023-08-15T14:13:55.890Z,95608.50
2023-08-15T14:16:41.965Z,95597.44
2023-08-15T14:19:28.031Z,95588.03
2023-08-15T14:22:14.920Z,95594.78
2023-08-15T14:25:01.539Z,95586.75
2023-08-15T14:27:48.749Z,95585.66
2023-08-15T14:30:34.773Z,95575.63
2023-08-15T14:33:21.031Z,95592.25
2023-08-15T14:36:07.657Z,95585.81
2023-08-15T14:38:54.783Z,95583.44
2023-08-15T14:41:40.707Z,95574.66
2023-08-15T14:44:26.895Z,95576.50
2023-08-15T14:47:15.495Z,95580.59
2023-08-15T14:50:03.997Z,95574.31
2023-08-15T14:52:49.824Z,95572.78
2023-08-15T14:55:35.744Z,95576.50
2023-08-15T14:58:21.782Z,95579.09
2023-08-15T15:01:08.789Z,95578.28
2023-08-15T15:03:57.048Z,95580.25
2023-08-15T15:06:42.973Z,95581.34
2023-08-15T15:09:29.037Z,95588.31
2023-08-15T15:12:14.941Z,95588.03
2023-08-15T15:15:04.760Z,95583.50
2023-08-15T15:17:50.781Z,95578.13
2023-08-15T15:20:36.879Z,95581.94
2023-08-15T15:23:23.069Z,95579.09
2023-08-15T15:26:11.128Z,95572.41
2023-08-15T15:28:57.611Z,95578.53
2023-08-15T15:31:45.866Z,95586.59
2023-08-15T15:34:34.217Z,95587.75
2023-08-15T15:37:21.267Z,95586.59
2023-08-15T15:40:08.545Z,95577.31
2023-08-15T15:42:54.606Z,95589.63
2023-08-15T15:45:40.968Z,95594.34
2023-08-15T15:48:28.177Z,95599.75
2023-08-15T15:51:14.460Z,95599.94
2023-08-15T15:54:00.824Z,95598.56
2023-08-15T15:56:47.776Z,95602.28
2023-08-15T15:59:34.031Z,95594.50
2023-08-15T16:02:20.375Z,95599.78
2023-08-15T16:05:07.134Z,95598.28
2023-08-15T16:07:53.676Z,95594.09
2023-08-15T16:10:39.486Z,95600.44
2023-08-15T16:13:26.639Z,95601.75
2023-08-15T16:16:13.694Z,95594.75
2023-08-15T16:18:59.651Z,95596.00
2023-08-15T16:21:45.562Z,95605.91
2023-08-15T16:24:31.723Z,95608.31
2023-08-15T16:27:17.766Z,95609.19
2023-08-15T16:30:16.259Z,95608.03
2023-08-15T16:33:04.573Z,95614.41
2023-08-15T16:35:50.912Z,95619.19
2023-08-15T16:38:36.903Z,95619.63
2023-08-15T16:41:22.701Z,95620.47
2023-08-15T16:44:09.939Z,95621.34
2023-08-15T16:46:56.243Z,95624.53
2023-08-15T16:49:45.599Z,95632.09
2023-08-15T16:52:32.802Z,95627.84
2023-08-15T16:55:19.025Z,95627.91
2023-08-15T16:58:13.750Z,95629.56
2023-08-15T17:00:59.974Z,95629.19
2023-08-15T17:03:45.902Z,95623.66
2023-08-15T17:06:33.106Z,95613.06
2023-08-15T17:09:19.292Z,95624.94
2023-08-15T17:12:07.136Z,95621.03
2023-08-15T17:14:56.111Z,95626.56
2023-08-15T17:17:43.846Z,95627.38
2023-08-15T17:20:29.802Z,95624.25
2023-08-15T17:23:15.891Z,95634.53
2023-08-15T17:26:01.732Z,95636.91
2023-08-15T17:28:48.377Z,95635.34
2023-08-15T17:31:34.378Z,95633.81
2023-08-15T17:34:21.367Z,95634.59
2023-08-15T17:37:07.246Z,95643.31
2023-08-15T17:39:53.359Z,95641.34
2023-08-15T17:42:39.802Z,95638.97
2023-08-15T17:45:25.786Z,95646.50
2023-08-15T17:48:11.873Z,95647.28
2023-08-15T17:50:58.257Z,95639.00
2023-08-15T17:53:44.576Z,95644.16
2023-08-15T17:56:32.007Z,95642.97
2023-08-15T17:59:18.351Z,95646.56
2023-08-15T18:02:04.914Z,95644.25
2023-08-15T18:04:51.232Z,95645.41
2023-08-15T18:07:37.443Z,95642.28
2023-08-15T18:10:23.660Z,95637.19
2023-08-15T18:13:09.683Z,95648.25
2023-08-15T18:15:55.803Z,95655.00
2023-08-15T18:18:42.025Z,95663.28
2023-08-15T18:21:34.938Z,95656.13
2023-08-15T18:24:20.753Z,95653.78
2023-08-15T18:27:07.510Z,95666.41
2023-08-15T18:29:53.549Z,95672.75
2023-08-15T18:32:40.194Z,95671.16
2023-08-15T18:35:26.162Z,95668.00
2023-08-15T18:38:13.032Z,95676.69
2023-08-15T18:40:59.948Z,95679.06
2023-08-15T18:43:45.979Z,95694.06
2023-08-15T18:46:32.242Z,95686.56
2023-08-15T18:49:19.382Z,95686.56
2023-08-15T18:52:05.603Z,95696.03
2023-08-15T18:54:52.021Z,95687.75
2023-08-15T18:57:38.074Z,95703.91
2023-08-15T19:00:23.812Z,95693.25
2023-08-15T19:03:11.310Z,95694.81
2023-08-15T19:05:58.069Z,95692.44
2023-08-15T19:08:44.162Z,95693.97
2023-08-15T19:11:31.567Z,95700.31
2023-08-15T19:14:17.636Z,95700.28
2023-08-15T19:17:03.970Z,95703.44
2023-08-15T19:19:49.935Z,95712.09
2023-08-15T19:22:36.278Z,95693.91
2023-08-15T19:25:23.581Z,95717.59
2023-08-15T19:28:09.686Z,95716.81
2023-08-15T19:30:56.045Z,95709.69
2023-08-15T19:33:42.630Z,95713.63
2023-08-15T19:36:29.021Z,95712.81
2023-08-15T19:39:15.111Z,95716.78
2023-08-15T19:42:01.248Z,95719.53
2023-08-15T19:44:48.466Z,95707.25
2023-08-15T19:47:34.725Z,95720.69
2023-08-15T19:50:20.903Z,95712.00
2023-08-15T19:53:07.840Z,95716.69
2023-08-15T19:55:54.029Z,95715.53
2023-08-15T19:58:40.332Z,95719.06
2023-08-15T20:01:26.295Z,95714.28
2023-08-15T20:04:12.541Z,95720.19
2023-08-15T20:06:59.022Z,95717.00
2023-08-15T20:09:55.063Z,95714.22
2023-08-15T20:12:42.157Z,95713.44
2023-08-15T20:15:28.477Z,95705.13
2023-08-15T20:18:15.062Z,95705.91
2023-08-15T20:21:02.015Z,95700.00
2023-08-15T20:23:47.868Z,95698.00
2023-08-15T20:26:33.948Z,95695.22
2023-08-15T20:29:20.102Z,95684.91
2023-08-15T20:32:08.668Z,95684.91
2023-08-15T20:34:54.985Z,95691.19
2023-08-15T20:37:41.512Z,95687.97
2023-08-15T20:40:27.603Z,95688.38
2023-08-15T20:43:15.059Z,95688.75
2023-08-15T20:46:00.950Z,95687.53
2023-08-15T20:48:47.074Z,95680.00
2023-08-15T20:51:33.227Z,95690.94
2023-08-15T20:54:25.817Z,95681.06
2023-08-15T20:57:14.347Z,95690.09
2023-08-15T21:00:00.236Z,95694.78
2023-08-15T21:02:46.487Z,95706.56
2023-08-15T21:05:32.508Z,95698.69
2023-08-15T21:08:18.329Z,95691.50
2023-08-15T21:11:04.651Z,95694.66
2023-08-15T21:13:55.328Z,95691.09
2023-08-15T21:16:41.493Z,95697.00
2023-08-15T21:19:29.276Z,95691.44
2023-08-15T21:22:16.709Z,95700.88
2023-08-15T21:25:04.273Z,95703.22
2023-08-15T21:27:51.071Z,95696.06
2023-08-15T21:30:38.099Z,95707.09
2023-08-15T21:33:25.281Z,95692.84
2023-08-15T21:36:11.518Z,95695.19
2023-08-15T21:38:58.185Z,95698.34
2023-08-15T21:41:45.072Z,95695.94
2023-08-15T21:44:33.423Z,95704.94
2023-08-15T21:47:20.077Z,95699.03
2023-08-15T21:50:07.947Z,95699.75
2023-08-15T21:52:53.798Z,95695.78
2023-08-15T21:55:39.730Z,95699.69
2023-08-15T21:58:25.641Z,95707.13
2023-08-15T22:01:11.398Z,95694.47
2023-08-15T22:03:57.345Z,95701.13
2023-08-15T22:06:43.188Z,95703.38
2023-08-15T22:09:28.979Z,95702.13
2023-08-15T22:12:14.815Z,95708.72
2023-08-15T22:15:01.829Z,95700.41
2023-08-15T22:17:54.496Z,95703.84
2023-08-15T22:20:47.910Z,95691.97
2023-08-15T22:23:33.945Z,95702.22
2023-08-15T22:26:20.043Z,95712.38
2023-08-15T22:29:05.892Z,95714.38
2023-08-15T22:31:51.929Z,95713.97
2023-08-15T22:34:39.478Z,95718.66
2023-08-15T22:37:25.479Z,95716.28
2023-08-15T22:40:12.844Z,95719.47
2023-08-15T22:42:59.928Z,95721.38
2023-08-15T22:45:46.854Z,95717.75
2023-08-15T22:48:32.852Z,95720.94
2023-08-15T22:51:18.757Z,95720.09
2023-08-15T22:54:05.052Z,95729.13
2023-08-15T22:56:51.002Z,95719.25
2023-08-15T22:59:37.334Z,95727.06
2023-08-15T23:02:23.514Z,95712.06
2023-08-15T23:05:10.184Z,95723.06
2023-08-15T23:07:55.977Z,95726.97
2023-08-15T23:10:41.823Z,95720.63
2023-08-15T23:13:28.000Z,95720.97
2023-08-15T23:16:14.859Z,95718.22
2023-08-15T23:19:00.652Z,95718.94
2023-08-15T23:21:46.702Z,95718.09
2023-08-15T23:24:32.815Z,95716.47
2023-08-15T23:27:18.973Z,95717.25
2023-08-15T23:30:06.145Z,95721.91
2023-08-15T23:32:52.260Z,95719.50
2023-08-15T23:35:38.300Z,95717.91
2023-08-15T23:38:24.310Z,95724.84
2023-08-15T23:41:10.567Z,95711.44
2023-08-15T23:43:59.546Z,95716.09
2023-08-15T23:46:49.127Z,95712.47
2023-08-15T23:49:35.207Z,95705.78
2023-08-15T23:52:21.865Z,95700.22
2023-08-15T23:55:08.136Z,95711.09
2023-08-15T23:57:54.245Z,95708.22
